CheckWX is a tool to help pilots better visualize weather data.  It is not intended as a substitute for an official pre-flight weather briefing.

01:10:45 UTC

CYBW METAR
Calgary / Springbank Airport
Calgary, Canada
Current

28 mins ago

CYBW 240043Z AUTO 05007KT 6SM -SN OVC039 M17/M20 A3022 RMK SLP331
Observed
Feb-24 @ 00:43 UTC
Wind
  • 050° at 7 KTS
Visibility
6 SM
Flight Rules
VFR
Conditions
Light Snow
Cloud Levels
  • Overcast at 3,900' AGL
Temperature
-17°C / 1°F
Dewpoint
-20°C / -4°F
Humidity
78%
Altimeter
30.22" Hg
Pressure
1033.1 hPa
Previous

43 mins ago

CYBW 240028Z AUTO 06008KT 5SM -SN FEW021 SCT029 OVC037 M17/M20 A3021 RMK SLP328
Observed
Feb-24 @ 00:28 UTC
Wind
  • 060° at 8 KTS
Visibility
5 SM
Flight Rules
MVFR
Conditions
Light Snow
Cloud Levels
  • Few at 2,100' AGL
  • Scattered at 2,900' AGL
  • Overcast at 3,700' AGL
Temperature
-17°C / 1°F
Dewpoint
-20°C / -4°F
Humidity
78%
Altimeter
30.21" Hg
Pressure
1032.8 hPa
Previous

1 hour ago

CYBW 240000Z AUTO 08006KT 9SM BKN029 M16/M20 A3021 RMK SLP327
Observed
Feb-24 @ 00:00 UTC
Wind
  • 080° at 6 KTS
Visibility
9 SM
Flight Rules
MVFR
Cloud Levels
  • Broken at 2,900' AGL
Temperature
-16°C / 3°F
Dewpoint
-20°C / -4°F
Humidity
72%
Altimeter
30.21" Hg
Pressure
1032.7 hPa